Time;durP1;ratioP1;P1;durP2;ratioP2;P2;SDS_P1;SDS_P2;PMS_P1;PMS_P2;Temp;Humidity;BMP_temperature;BMP_pressure;BME280_temperature;BME280_humidity;BME280_pressure;Samples;Min_cycle;Max_cycle;Signal;HPM_P1;HPM_P2
2024/03/15 00:00:38;;;;;;;5.47;1.97;;;10.90;54.90;;;;;;5007494;28;20207;-61
2024/03/15 00:03:04;;;;;;;2.50;2.23;;;10.90;55.00;;;;;;5010640;28;20345;-61
2024/03/15 00:05:30;;;;;;;2.67;2.30;;;11.00;54.70;;;;;;5011287;28;20305;-60
2024/03/15 00:07:57;;;;;;;3.27;2.10;;;10.90;54.90;;;;;;5004374;28;20206;-61
2024/03/15 00:10:23;;;;;;;4.00;2.60;;;10.80;55.30;;;;;;5004525;28;20210;-60
2024/03/15 00:12:51;;;;;;;2.63;2.23;;;10.70;55.50;;;;;;5002842;28;20241;-60
2024/03/15 00:15:18;;;;;;;2.47;2.20;;;10.80;56.30;;;;;;5004093;28;20295;-61
2024/03/15 00:17:44;;;;;;;2.50;2.30;;;10.70;55.60;;;;;;5005480;28;20205;-61
2024/03/15 00:20:11;;;;;;;2.50;2.30;;;10.70;55.80;;;;;;5009258;28;20686;-61
2024/03/15 00:22:38;;;;;;;2.63;2.40;;;10.70;56.20;;;;;;5006199;28;20226;-60
2024/03/15 00:25:04;;;;;;;2.80;2.30;;;10.60;56.20;;;;;;5003963;28;20252;-59
2024/03/15 00:27:30;;;;;;;2.50;2.30;;;10.60;56.20;;;;;;5008713;28;20316;-61
2024/03/15 00:29:57;;;;;;;2.60;2.40;;;10.70;56.00;;;;;;5001329;28;20210;-61
2024/03/15 00:32:27;;;;;;;2.77;2.57;;;10.50;56.10;;;;;;5000730;28;20229;-61
2024/03/15 00:34:54;;;;;;;3.00;2.23;;;10.60;56.40;;;;;;4998976;28;20245;-61
2024/03/15 00:37:20;;;;;;;2.60;2.40;;;10.70;55.80;;;;;;5000672;28;20277;-60
2024/03/15 00:39:46;;;;;;;3.70;2.60;;;10.60;55.90;;;;;;5003248;28;20215;-61
2024/03/15 00:42:14;;;;;;;2.90;2.50;;;10.60;56.40;;;;;;5004382;28;20379;-61
2024/03/15 00:44:41;;;;;;;2.83;2.20;;;10.60;56.30;;;;;;5001977;28;20242;-61
2024/03/15 00:47:08;;;;;;;2.30;2.10;;;10.50;56.20;;;;;;5008118;28;20203;-61
2024/03/15 00:49:34;;;;;;;2.90;2.60;;;10.60;56.30;;;;;;5001659;28;20215;-61
2024/03/15 00:52:01;;;;;;;2.93;2.40;;;10.50;56.60;;;;;;5004962;28;20233;-61
2024/03/15 00:54:28;;;;;;;3.93;2.50;;;10.50;56.90;;;;;;5000302;28;20206;-61
2024/03/15 00:56:55;;;;;;;3.07;2.30;;;10.50;56.50;;;;;;5010666;28;20260;-61
2024/03/15 00:59:21;;;;;;;2.60;2.40;;;10.50;56.60;;;;;;5004486;28;20293;-61
2024/03/15 01:01:48;;;;;;;2.90;2.60;;;10.50;56.70;;;;;;5001292;28;20726;-61
2024/03/15 01:04:14;;;;;;;3.63;2.63;;;10.40;56.80;;;;;;5000402;28;20237;-61
2024/03/15 01:06:41;;;;;;;3.00;2.60;;;10.40;56.80;;;;;;5006937;28;20209;-61
2024/03/15 01:09:08;;;;;;;2.30;2.17;;;10.50;56.70;;;;;;5006627;28;20201;-60
2024/03/15 01:11:34;;;;;;;2.90;2.23;;;10.40;56.80;;;;;;5001504;28;20284;-61
2024/03/15 01:14:04;;;;;;;3.07;2.60;;;10.40;56.70;;;;;;5003933;28;20217;-61
2024/03/15 01:16:30;;;;;;;3.27;2.60;;;10.40;56.80;;;;;;5003679;28;20214;-61
2024/03/15 01:18:57;;;;;;;2.63;2.43;;;10.40;56.80;;;;;;5011653;28;20210;-61
2024/03/15 01:21:26;;;;;;;3.13;2.73;;;10.30;56.90;;;;;;5007820;28;20317;-61
2024/03/15 01:23:52;;;;;;;3.00;2.70;;;10.40;57.30;;;;;;5007799;28;20321;-61
2024/03/15 01:26:19;;;;;;;4.70;2.60;;;10.40;56.50;;;;;;4996716;28;20648;-61
2024/03/15 01:28:46;;;;;;;2.63;2.43;;;10.40;57.20;;;;;;5003773;28;20232;-61
2024/03/15 01:31:12;;;;;;;3.07;2.30;;;10.30;56.90;;;;;;4999982;28;20217;-61
2024/03/15 01:33:40;;;;;;;2.30;2.10;;;10.40;56.30;;;;;;5001790;28;20237;-61
2024/03/15 01:36:06;;;;;;;2.30;2.10;;;10.40;56.40;;;;;;5011223;28;20209;-61
2024/03/15 01:38:33;;;;;;;2.83;2.10;;;10.40;56.00;;;;;;5006486;28;20228;-61
2024/03/15 01:41:00;;;;;;;2.10;2.00;;;10.50;55.60;;;;;;5003853;28;20587;-61
2024/03/15 01:43:26;;;;;;;2.20;2.00;;;10.40;55.80;;;;;;5005870;28;20308;-61
2024/03/15 01:45:53;;;;;;;2.10;1.90;;;10.30;55.90;;;;;;5009431;28;20212;-61
2024/03/15 01:48:20;;;;;;;2.27;2.00;;;10.30;55.90;;;;;;5008832;28;20589;-61
2024/03/15 01:50:47;;;;;;;2.07;1.97;;;10.40;55.70;;;;;;5013796;28;20205;-61
2024/03/15 01:53:14;;;;;;;1.93;1.70;;;10.40;55.10;;;;;;5007274;28;20234;-61
2024/03/15 01:55:40;;;;;;;2.50;1.67;;;10.40;55.40;;;;;;5007414;28;20210;-61
2024/03/15 01:58:08;;;;;;;1.70;1.60;;;10.40;55.00;;;;;;5010239;28;20218;-61
2024/03/15 02:00:36;;;;;;;2.07;1.93;;;10.60;54.50;;;;;;5005511;28;20619;-62
2024/03/15 02:03:03;;;;;;;2.20;1.97;;;10.50;54.50;;;;;;5011040;28;20252;-60
2024/03/15 02:05:32;;;;;;;1.83;1.73;;;10.60;54.30;;;;;;5007175;28;20223;-61
2024/03/15 02:07:58;;;;;;;1.90;1.80;;;10.70;54.10;;;;;;5011367;28;20582;-61
2024/03/15 02:10:26;;;;;;;1.80;1.70;;;10.60;54.00;;;;;;5003990;28;20222;-61
2024/03/15 02:12:52;;;;;;;3.23;1.97;;;10.80;53.80;;;;;;5006996;28;20308;-61
2024/03/15 02:15:19;;;;;;;2.50;2.00;;;10.80;53.50;;;;;;5007177;28;20700;-61
2024/03/15 02:17:45;;;;;;;2.27;1.97;;;10.80;53.40;;;;;;4999922;28;20236;-61
2024/03/15 02:20:15;;;;;;;1.77;1.67;;;10.80;53.40;;;;;;5005450;28;20215;-61
2024/03/15 02:22:41;;;;;;;1.93;1.83;;;10.80;53.30;;;;;;5012859;28;20258;-60
2024/03/15 02:25:08;;;;;;;1.80;1.60;;;10.80;52.60;;;;;;5009590;28;20314;-61
2024/03/15 02:27:35;;;;;;;2.00;1.90;;;10.70;53.00;;;;;;5011555;28;20275;-62
2024/03/15 02:30:01;;;;;;;2.00;1.80;;;10.80;53.20;;;;;;5010740;28;20207;-62
2024/03/15 02:32:28;;;;;;;2.80;1.80;;;10.80;52.80;;;;;;5003423;28;20230;-62
2024/03/15 02:34:54;;;;;;;1.60;1.50;;;10.80;53.30;;;;;;5008449;28;20791;-62
2024/03/15 02:37:21;;;;;;;1.80;1.70;;;10.60;52.80;;;;;;5011802;28;20224;-60
2024/03/15 02:39:48;;;;;;;1.70;1.60;;;10.70;52.80;;;;;;5008424;28;20884;-61
2024/03/15 02:42:15;;;;;;;1.60;1.50;;;10.60;52.70;;;;;;5003502;28;20237;-61
2024/03/15 02:44:42;;;;;;;1.80;1.70;;;10.60;52.60;;;;;;5005261;28;20231;-61
2024/03/15 02:47:08;;;;;;;1.50;1.40;;;10.70;52.80;;;;;;5014709;28;20237;-62
2024/03/15 02:49:36;;;;;;;1.80;1.70;;;10.60;52.20;;;;;;5005759;28;20257;-61
2024/03/15 02:52:03;;;;;;;1.53;1.43;;;10.70;52.30;;;;;;5007651;28;20706;-62
2024/03/15 02:54:29;;;;;;;2.40;1.70;;;10.70;51.80;;;;;;5005856;28;20699;-61
2024/03/15 02:56:56;;;;;;;1.97;1.43;;;10.70;51.90;;;;;;5013529;28;20216;-62
2024/03/15 02:59:23;;;;;;;1.53;1.43;;;10.70;51.80;;;;;;5006959;28;20721;-62
2024/03/15 03:01:51;;;;;;;1.70;1.60;;;10.80;51.40;;;;;;5005761;28;20231;-62
2024/03/15 03:04:18;;;;;;;2.47;1.60;;;10.70;51.30;;;;;;5006295;28;20237;-61
2024/03/15 03:06:45;;;;;;;1.97;1.60;;;10.70;51.30;;;;;;5008379;28;20213;-61
2024/03/15 03:09:12;;;;;;;1.90;1.73;;;10.60;51.50;;;;;;5009685;28;20643;-61
2024/03/15 03:11:39;;;;;;;2.13;1.70;;;10.70;51.30;;;;;;4998494;28;20249;-62
2024/03/15 03:14:05;;;;;;;1.80;1.70;;;10.70;51.30;;;;;;5006830;28;20210;-62
2024/03/15 03:16:34;;;;;;;1.40;1.37;;;10.60;51.20;;;;;;5005756;28;20224;-61
2024/03/15 03:19:00;;;;;;;3.47;1.60;;;10.70;51.00;;;;;;5009393;28;20211;-61
2024/03/15 03:21:27;;;;;;;2.13;1.60;;;10.70;50.90;;;;;;5010776;28;20230;-62
2024/03/15 03:23:56;;;;;;;1.73;1.63;;;10.80;50.80;;;;;;5004566;28;20224;-62
2024/03/15 03:26:23;;;;;;;1.70;1.60;;;10.70;51.00;;;;;;5004840;28;20683;-62
2024/03/15 03:28:49;;;;;;;1.63;1.53;;;10.70;51.30;;;;;;5008890;28;20280;-62
2024/03/15 03:31:15;;;;;;;1.90;1.70;;;10.70;51.30;;;;;;5002634;28;20793;-62
2024/03/15 03:33:42;;;;;;;1.70;1.60;;;10.70;51.70;;;;;;5003835;28;20219;-61
2024/03/15 03:36:09;;;;;;;1.83;1.70;;;10.60;51.50;;;;;;5004420;28;20199;-61
2024/03/15 03:38:35;;;;;;;1.73;1.63;;;10.60;51.60;;;;;;5005511;28;20210;-61
2024/03/15 03:41:03;;;;;;;1.90;1.80;;;10.60;52.00;;;;;;5005708;28;20218;-62
2024/03/15 03:43:30;;;;;;;1.87;1.70;;;10.60;51.90;;;;;;5005735;28;20242;-61
2024/03/15 03:45:56;;;;;;;1.90;1.80;;;10.60;51.30;;;;;;4999714;28;20229;-61
2024/03/15 03:48:23;;;;;;;2.03;1.93;;;10.60;51.40;;;;;;5001823;28;20589;-60
2024/03/15 03:50:50;;;;;;;2.27;2.10;;;10.60;51.60;;;;;;5007620;28;20225;-61
2024/03/15 03:53:17;;;;;;;1.90;1.80;;;10.60;51.60;;;;;;5006361;28;20644;-62
2024/03/15 03:55:43;;;;;;;2.20;2.00;;;10.50;51.70;;;;;;5007420;28;20217;-61
2024/03/15 03:58:10;;;;;;;2.00;1.90;;;10.50;51.80;;;;;;5005462;28;20224;-61
2024/03/15 04:00:37;;;;;;;1.97;1.87;;;10.60;51.70;;;;;;5004335;28;20582;-61
2024/03/15 04:03:04;;;;;;;2.20;2.00;;;10.60;51.60;;;;;;5008544;28;20229;-61
2024/03/15 04:05:30;;;;;;;1.87;1.77;;;10.60;51.30;;;;;;5002397;28;20222;-61
2024/03/15 04:07:57;;;;;;;1.93;1.83;;;10.70;51.80;;;;;;5005578;28;20210;-62
2024/03/15 04:10:24;;;;;;;2.07;1.97;;;10.60;51.10;;;;;;5004507;28;20216;-61
2024/03/15 04:12:51;;;;;;;1.80;1.70;;;10.60;51.70;;;;;;5004734;28;20275;-61
2024/03/15 04:15:17;;;;;;;2.13;2.00;;;10.80;51.30;;;;;;5006273;28;20211;-61
2024/03/15 04:17:44;;;;;;;2.87;1.93;;;10.80;50.80;;;;;;5005150;28;20221;-61
2024/03/15 04:20:12;;;;;;;1.80;1.70;;;10.90;50.60;;;;;;5001222;28;20210;-60
2024/03/15 04:22:42;;;;;;;2.37;2.17;;;10.90;50.40;;;;;;5005972;28;20230;-62
2024/03/15 04:25:09;;;;;;;1.80;1.70;;;10.90;50.60;;;;;;5005560;28;20747;-61
2024/03/15 04:27:35;;;;;;;2.20;2.00;;;10.90;50.40;;;;;;5003717;28;20307;-61
2024/03/15 04:30:13;;;;;;;2.27;2.00;;;10.90;50.60;;;;;;5001872;28;20792;-60
2024/03/15 04:32:39;;;;;;;2.10;2.00;;;11.00;50.30;;;;;;5003480;28;20229;-60
2024/03/15 04:35:06;;;;;;;3.00;1.90;;;11.00;50.30;;;;;;5005981;28;20201;-61
2024/03/15 04:37:33;;;;;;;1.90;1.80;;;11.00;50.40;;;;;;5005416;28;20200;-61
2024/03/15 04:40:00;;;;;;;2.10;2.00;;;11.00;49.90;;;;;;5007374;28;20561;-61
2024/03/15 04:42:31;;;;;;;2.13;1.90;;;11.00;50.10;;;;;;5011755;28;20268;-61
2024/03/15 04:45:02;;;;;;;2.23;2.03;;;10.90;50.20;;;;;;5008728;28;20227;-62
2024/03/15 04:47:29;;;;;;;2.43;1.90;;;10.90;50.70;;;;;;5001426;28;20217;-61
2024/03/15 04:49:56;;;;;;;2.07;1.87;;;10.90;50.80;;;;;;5004452;28;20633;-61
2024/03/15 04:52:22;;;;;;;2.40;1.83;;;10.90;50.60;;;;;;5005129;28;20241;-62
2024/03/15 04:54:49;;;;;;;2.10;1.90;;;10.90;50.70;;;;;;5009028;28;20209;-62
2024/03/15 04:57:18;;;;;;;2.33;2.13;;;10.90;51.00;;;;;;5004404;28;20203;-62
2024/03/15 04:59:45;;;;;;;4.27;2.10;;;10.80;50.90;;;;;;5003282;28;20221;-61
2024/03/15 05:02:12;;;;;;;2.10;2.00;;;10.80;50.80;;;;;;5003530;28;20233;-62
2024/03/15 05:04:40;;;;;;;4.03;1.83;;;10.80;51.10;;;;;;5006258;28;20604;-61
2024/03/15 05:07:07;;;;;;;2.20;2.00;;;10.80;51.00;;;;;;5004597;28;20217;-60
2024/03/15 05:09:34;;;;;;;2.23;2.03;;;10.80;50.80;;;;;;5004118;28;20245;-61
2024/03/15 05:12:01;;;;;;;1.97;1.80;;;10.80;50.80;;;;;;5003240;28;20234;-61
2024/03/15 05:14:28;;;;;;;2.90;2.13;;;10.80;51.10;;;;;;5004475;28;20210;-62
2024/03/15 05:16:54;;;;;;;3.17;2.73;;;10.70;51.40;;;;;;5003445;28;20206;-62
2024/03/15 05:19:21;;;;;;;2.33;2.13;;;10.70;51.40;;;;;;4997356;28;20294;-61
2024/03/15 05:21:47;;;;;;;2.20;2.00;;;10.70;51.50;;;;;;5000588;28;20230;-60
2024/03/15 05:24:14;;;;;;;3.17;2.57;;;10.60;51.50;;;;;;5009465;28;20218;-61
2024/03/15 05:26:41;;;;;;;2.23;2.10;;;10.50;52.30;;;;;;5002228;28;20238;-61
2024/03/15 05:29:08;;;;;;;2.40;2.20;;;10.40;52.40;;;;;;5003895;28;20218;-61
2024/03/15 05:31:34;;;;;;;2.17;1.90;;;10.50;52.20;;;;;;5003076;28;20237;-61
2024/03/15 05:34:01;;;;;;;2.43;2.20;;;10.60;51.80;;;;;;5004959;28;20210;-62
2024/03/15 05:36:27;;;;;;;2.27;2.07;;;10.70;51.50;;;;;;4999206;28;20205;-61
2024/03/15 05:38:54;;;;;;;2.40;2.20;;;10.60;51.50;;;;;;4994112;28;20210;-61
2024/03/15 05:41:21;;;;;;;1.83;1.73;;;10.60;51.60;;;;;;5000961;28;20234;-61
2024/03/15 05:43:49;;;;;;;3.10;2.10;;;10.60;51.30;;;;;;5005620;28;20668;-62
2024/03/15 05:46:16;;;;;;;2.47;2.27;;;10.70;51.20;;;;;;5005655;28;20765;-61
2024/03/15 05:48:43;;;;;;;4.03;2.30;;;10.70;51.50;;;;;;5002390;28;20686;-61
2024/03/15 05:51:10;;;;;;;2.87;2.30;;;10.70;51.10;;;;;;5003752;28;20245;-61
2024/03/15 05:53:37;;;;;;;3.37;2.13;;;10.80;50.80;;;;;;5009195;28;20425;-61
2024/03/15 05:56:04;;;;;;;2.03;1.90;;;10.80;50.70;;;;;;4999508;28;20676;-61
2024/03/15 05:58:30;;;;;;;2.77;1.87;;;10.90;50.40;;;;;;4995426;28;20699;-61
2024/03/15 06:00:58;;;;;;;2.43;2.10;;;10.80;50.60;;;;;;5011983;28;20214;-61
2024/03/15 06:03:25;;;;;;;2.87;2.33;;;10.80;50.60;;;;;;5011559;28;20235;-61
2024/03/15 06:05:51;;;;;;;4.40;2.23;;;10.80;50.70;;;;;;5011396;28;20230;-61
2024/03/15 06:08:18;;;;;;;2.13;1.90;;;10.90;50.40;;;;;;5011196;28;20262;-61
2024/03/15 06:10:44;;;;;;;2.07;1.90;;;11.00;50.10;;;;;;5001481;28;20214;-61
2024/03/15 06:13:11;;;;;;;2.10;1.80;;;11.00;49.90;;;;;;5001716;28;20230;-61
2024/03/15 06:15:38;;;;;;;3.23;2.00;;;11.10;50.00;;;;;;4999044;28;20243;-60
2024/03/15 06:18:06;;;;;;;1.90;1.80;;;11.10;50.00;;;;;;5004123;28;20265;-61
2024/03/15 06:20:32;;;;;;;2.33;2.00;;;11.10;50.00;;;;;;5003176;28;20210;-60
2024/03/15 06:22:59;;;;;;;2.20;2.00;;;11.20;50.10;;;;;;5005351;28;20232;-61
2024/03/15 06:25:26;;;;;;;2.70;2.10;;;11.30;49.20;;;;;;5007523;28;20227;-61
2024/03/15 06:27:52;;;;;;;2.83;2.20;;;11.50;48.60;;;;;;5004086;28;20226;-61
2024/03/15 06:30:19;;;;;;;5.13;2.43;;;11.60;48.40;;;;;;5004097;28;20352;-60
2024/03/15 06:32:46;;;;;;;2.53;2.23;;;11.80;47.80;;;;;;5005149;28;20322;-61
2024/03/15 06:35:27;;;;;;;2.13;1.93;;;12.00;47.30;;;;;;5007461;28;20260;-59
2024/03/15 06:38:07;;;;;;;2.87;1.90;;;12.10;46.80;;;;;;5008168;28;20202;-61
2024/03/15 06:40:43;;;;;;;2.10;1.87;;;12.10;47.00;;;;;;5007394;28;20214;-61
2024/03/15 06:43:25;;;;;;;2.00;1.70;;;12.20;46.50;;;;;;5009427;28;20230;-61
2024/03/15 06:45:57;;;;;;;3.13;1.80;;;12.30;46.40;;;;;;5008064;28;20224;-58
2024/03/15 06:48:33;;;;;;;1.73;1.63;;;12.40;46.70;;;;;;5007533;28;20244;-61
2024/03/15 06:52:31;;;;;;;3.40;1.70;;;12.50;45.50;;;;;;5009541;28;20212;-61
2024/03/15 06:53:47;;;;;;;3.37;2.80;;;12.60;45.90;;;;;;5013308;28;20267;-62
2024/03/15 06:56:14;;;;;;;2.20;2.00;;;12.70;45.30;;;;;;5011471;28;20259;-62
2024/03/15 06:58:43;;;;;;;2.43;1.67;;;12.80;45.40;;;;;;5006188;28;20229;-62
2024/03/15 07:01:11;;;;;;;2.03;1.83;;;12.90;51.10;;;;;;5010739;28;20575;-61
2024/03/15 07:03:38;;;;;;;2.80;2.10;;;13.00;49.10;;;;;;5010572;28;20299;-60
2024/03/15 07:06:05;;;;;;;2.67;2.40;;;12.90;50.20;;;;;;5003472;28;20232;-61
2024/03/15 07:08:31;;;;;;;5.20;2.00;;;13.00;51.30;;;;;;5006603;28;20211;-62
2024/03/15 07:10:58;;;;;;;2.37;1.70;;;13.10;53.10;;;;;;5014012;28;20209;-61
2024/03/15 07:13:24;;;;;;;1.70;1.60;;;13.10;53.00;;;;;;5006692;28;20523;-60
2024/03/15 07:15:51;;;;;;;2.10;1.60;;;13.40;60.20;;;;;;5003154;28;20258;-61
2024/03/15 07:18:18;;;;;;;2.10;1.90;;;13.20;45.80;;;;;;5013487;28;20607;-61
2024/03/15 07:20:45;;;;;;;1.77;1.67;;;13.30;45.60;;;;;;5003648;28;20214;-62
2024/03/15 07:23:12;;;;;;;3.30;1.90;;;13.40;46.10;;;;;;5003779;28;20230;-61
2024/03/15 07:25:38;;;;;;;2.37;1.60;;;13.50;46.30;;;;;;5009540;28;20229;-62
2024/03/15 07:28:05;;;;;;;1.97;1.77;;;13.60;46.20;;;;;;5006011;28;20237;-62
2024/03/15 07:30:34;;;;;;;2.63;1.60;;;13.60;44.60;;;;;;5005508;28;20238;-61
2024/03/15 07:33:01;;;;;;;2.30;1.67;;;13.70;44.20;;;;;;5002520;28;20233;-61
2024/03/15 07:35:29;;;;;;;2.33;1.70;;;13.70;43.70;;;;;;5009363;28;20210;-61
2024/03/15 07:37:57;;;;;;;2.00;1.50;;;13.70;44.20;;;;;;4998033;28;20269;-61
2024/03/15 07:40:24;;;;;;;2.10;1.40;;;13.70;44.20;;;;;;5009607;28;20218;-61
2024/03/15 07:42:53;;;;;;;3.30;1.67;;;13.80;43.80;;;;;;5005820;28;20222;-62
2024/03/15 07:45:20;;;;;;;2.20;1.70;;;13.90;44.40;;;;;;5011785;28;20223;-62
2024/03/15 07:47:46;;;;;;;2.03;1.60;;;13.90;43.40;;;;;;5004968;28;20290;-61
2024/03/15 07:50:13;;;;;;;2.10;1.80;;;13.90;41.10;;;;;;5006903;28;20206;-60
2024/03/15 07:52:39;;;;;;;3.97;1.70;;;14.10;40.60;;;;;;5007486;28;20706;-62
2024/03/15 07:55:06;;;;;;;4.77;1.77;;;14.20;40.50;;;;;;5008457;28;20207;-61
2024/03/15 07:57:32;;;;;;;3.20;1.40;;;14.30;41.30;;;;;;5003303;28;20219;-62
2024/03/15 07:59:59;;;;;;;3.43;1.73;;;14.50;40.00;;;;;;5008589;28;20208;-61
2024/03/15 08:02:26;;;;;;;3.00;1.70;;;14.50;40.10;;;;;;5012329;28;20697;-62
2024/03/15 08:04:52;;;;;;;2.73;1.50;;;14.50;41.00;;;;;;5007675;28;20208;-61
2024/03/15 08:07:19;;;;;;;2.40;1.67;;;14.60;44.00;;;;;;5011342;28;20235;-62
2024/03/15 08:09:46;;;;;;;2.77;1.70;;;14.70;39.60;;;;;;5004289;28;20621;-61
2024/03/15 08:12:14;;;;;;;5.40;2.13;;;14.60;39.30;;;;;;5006728;28;20228;-62
2024/03/15 08:14:41;;;;;;;2.00;1.80;;;14.70;39.80;;;;;;5008089;28;20314;-61
2024/03/15 08:17:08;;;;;;;2.00;1.47;;;;;;;;;;5011246;28;20213;-62
2024/03/15 08:19:35;;;;;;;2.17;1.73;;;15.10;39.20;;;;;;4999538;28;20297;-62
2024/03/15 08:22:01;;;;;;;2.43;1.50;;;15.20;39.90;;;;;;4991419;28;20226;-62
2024/03/15 08:24:27;;;;;;;2.27;1.90;;;15.30;40.00;;;;;;5005804;28;20201;-61
2024/03/15 08:26:54;;;;;;;1.67;1.57;;;15.40;38.80;;;;;;5006027;28;20236;-61
2024/03/15 08:29:21;;;;;;;2.30;1.80;;;;;;;;;;5005545;28;20697;-61
2024/03/15 08:31:48;;;;;;;3.07;1.90;;;15.70;47.60;;;;;;5000520;28;20238;-61
2024/03/15 08:34:15;;;;;;;2.20;2.00;;;15.90;38.30;;;;;;5011933;28;20297;-61
2024/03/15 08:36:41;;;;;;;4.87;1.80;;;15.80;38.50;;;;;;4996481;28;20226;-61
2024/03/15 08:39:13;;;;;;;2.77;1.90;;;15.60;38.50;;;;;;5008884;28;20623;-60
2024/03/15 08:41:42;;;;;;;2.33;1.70;;;15.60;39.20;;;;;;5005217;28;20253;-60
2024/03/15 08:44:09;;;;;;;2.30;2.00;;;15.60;38.90;;;;;;5004067;28;20313;-61
2024/03/15 08:46:36;;;;;;;2.17;1.60;;;15.50;38.80;;;;;;5004531;28;20228;-61
2024/03/15 08:49:03;;;;;;;1.80;1.70;;;15.40;39.40;;;;;;5003243;28;20287;-61
2024/03/15 08:51:30;;;;;;;2.63;1.60;;;15.30;40.00;;;;;;4998953;28;20314;-65
2024/03/15 08:53:57;;;;;;;2.33;1.80;;;15.20;39.90;;;;;;5009432;28;20210;-66
2024/03/15 08:56:24;;;;;;;3.67;1.90;;;15.20;40.30;;;;;;5008114;28;20211;-62
2024/03/15 08:58:51;;;;;;;2.37;2.17;;;15.30;40.10;;;;;;5010663;28;20210;-63
2024/03/15 09:01:20;;;;;;;1.50;1.40;;;15.60;40.10;;;;;;5006766;28;20232;-63
2024/03/15 09:03:47;;;;;;;2.50;2.00;;;16.00;38.70;;;;;;5011343;28;20232;-62
2024/03/15 09:06:14;;;;;;;2.93;1.90;;;15.80;39.60;;;;;;5004347;28;20764;-63
2024/03/15 09:08:41;;;;;;;2.77;2.00;;;15.60;39.70;;;;;;5004634;28;20302;-62
2024/03/15 09:11:08;;;;;;;2.23;1.80;;;15.70;39.10;;;;;;5011255;28;20270;-62
2024/03/15 09:13:35;;;;;;;2.20;1.83;;;16.20;38.60;;;;;;5005790;28;20278;-62
2024/03/15 09:16:02;;;;;;;3.87;1.60;;;17.10;37.50;;;;;;5005643;28;20214;-66
2024/03/15 09:18:28;;;;;;;2.20;1.90;;;16.50;38.20;;;;;;5010927;28;20573;-62
2024/03/15 09:20:55;;;;;;;3.00;1.90;;;16.10;39.00;;;;;;5010792;28;20226;-62
2024/03/15 09:23:23;;;;;;;2.03;1.80;;;15.70;40.20;;;;;;4990608;28;20223;-61
2024/03/15 09:25:49;;;;;;;3.57;1.70;;;15.50;40.60;;;;;;4994452;28;20571;-61
2024/03/15 09:28:18;;;;;;;2.13;1.80;;;15.40;41.40;;;;;;5004251;28;20210;-61
2024/03/15 09:30:49;;;;;;;4.20;1.90;;;15.40;41.40;;;;;;5007527;28;20228;-61
2024/03/15 09:33:15;;;;;;;3.80;2.00;;;15.50;40.90;;;;;;5006341;28;20222;-60
2024/03/15 09:35:44;;;;;;;2.97;1.97;;;15.50;41.10;;;;;;5001859;28;20251;-61
2024/03/15 09:38:12;;;;;;;2.87;2.10;;;15.40;42.10;;;;;;5003939;28;20582;-59
2024/03/15 09:40:38;;;;;;;2.20;1.90;;;15.30;42.00;;;;;;4993019;28;20216;-59
2024/03/15 09:43:05;;;;;;;3.93;1.90;;;15.10;42.30;;;;;;4992761;28;20248;-58
2024/03/15 09:45:31;;;;;;;2.70;2.20;;;15.00;42.60;;;;;;4993229;28;20212;-59
2024/03/15 09:47:57;;;;;;;3.27;2.40;;;14.90;42.90;;;;;;5008095;28;20227;-60
2024/03/15 09:50:24;;;;;;;1.83;1.73;;;14.70;43.60;;;;;;5005343;28;20208;-60
2024/03/15 09:52:51;;;;;;;2.40;1.97;;;14.70;44.10;;;;;;5009237;28;20717;-59
2024/03/15 09:55:19;;;;;;;3.07;1.63;;;14.70;44.10;;;;;;5002445;28;20207;-59
2024/03/15 09:57:46;;;;;;;3.27;2.20;;;14.60;44.60;;;;;;5004582;28;20576;-60
2024/03/15 10:00:13;;;;;;;3.27;2.33;;;14.30;50.20;;;;;;4984522;28;20218;-60
2024/03/15 10:02:39;;;;;;;3.40;2.60;;;13.90;53.60;;;;;;5002189;28;20318;-60
2024/03/15 10:05:08;;;;;;;2.90;2.40;;;13.70;55.90;;;;;;5004964;28;21357;-60
2024/03/15 10:07:35;;;;;;;3.90;2.10;;;13.80;56.90;;;;;;5011431;28;20247;-60
2024/03/15 10:10:01;;;;;;;3.23;2.50;;;13.80;56.90;;;;;;5014913;28;20257;-59
2024/03/15 10:12:28;;;;;;;2.80;2.20;;;14.00;56.50;;;;;;5008217;28;20223;-59
2024/03/15 10:14:55;;;;;;;2.63;2.27;;;14.20;55.70;;;;;;5002744;28;20213;-58
2024/03/15 10:17:21;;;;;;;2.57;2.30;;;14.40;55.50;;;;;;5009508;28;20230;-60
2024/03/15 10:19:48;;;;;;;2.30;2.10;;;14.30;54.10;;;;;;5014097;28;20204;-60
2024/03/15 10:22:14;;;;;;;2.40;2.20;;;14.30;54.40;;;;;;5010080;28;20235;-60
2024/03/15 10:24:41;;;;;;;4.33;2.00;;;14.20;53.70;;;;;;4998202;28;20220;-60
2024/03/15 10:27:08;;;;;;;2.07;1.97;;;14.20;53.70;;;;;;5005030;28;20225;-60
2024/03/15 10:29:34;;;;;;;2.60;2.40;;;14.10;54.10;;;;;;5011565;28;20219;-60
2024/03/15 10:32:01;;;;;;;3.27;2.57;;;14.30;52.90;;;;;;5008340;28;20226;-60
2024/03/15 10:34:28;;;;;;;2.50;2.20;;;14.70;53.00;;;;;;5010962;28;20201;-59
2024/03/15 10:36:55;;;;;;;2.77;2.07;;;15.20;51.00;;;;;;5002136;28;20297;-59
2024/03/15 10:39:23;;;;;;;3.00;2.10;;;15.30;50.30;;;;;;5008996;28;20272;-61
2024/03/15 10:41:50;;;;;;;3.27;2.30;;;15.20;49.60;;;;;;5004116;28;20249;-61
2024/03/15 10:44:16;;;;;;;2.97;2.33;;;15.20;49.40;;;;;;5011227;28;20215;-61
2024/03/15 10:46:43;;;;;;;3.50;2.30;;;15.10;48.90;;;;;;5013510;28;20236;-60
2024/03/15 10:49:10;;;;;;;4.03;2.40;;;15.60;49.10;;;;;;5013221;28;20212;-60
2024/03/15 10:51:37;;;;;;;2.60;2.40;;;15.80;48.50;;;;;;5012819;28;20314;-60
2024/03/15 10:54:04;;;;;;;3.43;2.23;;;;;;;;;;5007771;28;20261;-60
2024/03/15 10:56:32;;;;;;;3.33;2.43;;;;;;;;;;5013455;28;20240;-60
2024/03/15 10:58:58;;;;;;;3.53;2.33;;;17.40;44.40;;;;;;5006304;28;20224;-61
2024/03/15 11:01:25;;;;;;;2.67;2.23;;;17.80;44.10;;;;;;5003697;28;20603;-59
2024/03/15 11:03:52;;;;;;;2.30;2.00;;;18.00;44.00;;;;;;5007387;28;20285;-60
2024/03/15 11:06:18;;;;;;;2.30;2.10;;;18.10;42.40;;;;;;5012969;28;20774;-60
2024/03/15 11:08:46;;;;;;;3.70;2.15;;;18.10;42.40;;;;;;5012903;28;20209;-60
2024/03/15 11:11:12;;;;;;;3.40;1.95;;;18.90;41.30;;;;;;5013404;28;20286;-60
2024/03/15 11:13:39;;;;;;;2.17;1.92;;;18.30;41.80;;;;;;5006261;28;20210;-60
2024/03/15 11:16:06;;;;;;;2.58;2.38;;;18.50;41.90;;;;;;5008620;28;20222;-60
2024/03/15 11:18:31;;;;;;;2.88;2.30;;;18.90;40.90;;;;;;5013274;28;20233;-60
2024/03/15 11:20:59;;;;;;;5.43;2.08;;;18.70;39.80;;;;;;5000293;28;20198;-60
2024/03/15 11:23:26;;;;;;;2.50;2.30;;;17.80;41.80;;;;;;5002304;28;20219;-60
2024/03/15 11:25:52;;;;;;;3.10;2.40;;;19.80;39.70;;;;;;5000943;28;20294;-60
2024/03/15 11:28:19;;;;;;;2.63;2.05;;;24.20;31.40;;;;;;5012480;28;20215;-59
2024/03/15 11:30:46;;;;;;;2.63;2.25;;;23.10;33.20;;;;;;5005594;28;20686;-60
2024/03/15 11:33:12;;;;;;;4.07;2.58;;;22.90;32.60;;;;;;5013933;28;20233;-61
2024/03/15 11:35:40;;;;;;;2.05;1.92;;;26.40;28.60;;;;;;5005679;28;20204;-61
2024/03/15 11:38:07;;;;;;;3.78;2.10;;;28.30;25.10;;;;;;5009214;28;20203;-61
2024/03/15 11:40:34;;;;;;;2.30;1.75;;;29.70;23.50;;;;;;5012992;28;20221;-61
2024/03/15 11:43:00;;;;;;;2.67;2.00;;;26.60;27.10;;;;;;5008516;28;20231;-60
2024/03/15 11:45:27;;;;;;;2.20;1.85;;;28.40;24.70;;;;;;5009943;28;20578;-61
2024/03/15 11:47:54;;;;;;;2.22;1.73;;;28.90;24.60;;;;;;5000172;28;20230;-59
2024/03/15 11:50:20;;;;;;;5.63;1.98;;;28.30;24.70;;;;;;5010934;28;20217;-59
2024/03/15 11:52:47;;;;;;;3.55;1.92;;;25.00;27.80;;;;;;5010510;28;20239;-59
2024/03/15 11:55:17;;;;;;;5.03;2.05;;;23.80;29.70;;;;;;5001716;28;20211;-60
2024/03/15 11:57:44;;;;;;;3.80;2.28;;;23.20;29.90;;;;;;5011048;28;20218;-59
2024/03/15 12:00:11;;;;;;;4.43;2.10;;;23.90;28.70;;;;;;5013027;28;20214;-59
2024/03/15 12:02:38;;;;;;;3.13;2.20;;;24.10;28.30;;;;;;5012649;28;20239;-59
2024/03/15 12:05:05;;;;;;;2.67;2.17;;;23.90;28.60;;;;;;5007050;28;20257;-60
2024/03/15 12:07:33;;;;;;;2.38;2.08;;;24.40;27.90;;;;;;5005086;28;20235;-60
2024/03/15 12:09:59;;;;;;;2.38;2.00;;;25.90;25.90;;;;;;5008801;28;20212;-60
2024/03/15 12:12:26;;;;;;;4.07;2.20;;;27.00;25.10;;;;;;5004416;28;20307;-60
2024/03/15 12:14:53;;;;;;;2.13;1.73;;;27.50;23.60;;;;;;5004558;28;20237;-60
2024/03/15 12:17:21;;;;;;;3.03;1.90;;;27.40;24.50;;;;;;5012861;28;20226;-60
2024/03/15 12:19:49;;;;;;;3.35;1.63;;;28.80;23.00;;;;;;5013067;28;20210;-60
2024/03/15 12:22:15;;;;;;;2.28;1.80;;;28.20;23.20;;;;;;5012910;28;20227;-59
2024/03/15 12:24:43;;;;;;;3.22;1.75;;;28.10;23.20;;;;;;4993935;28;20207;-60
2024/03/15 12:27:09;;;;;;;2.92;1.65;;;29.40;22.60;;;;;;5006502;28;20199;-61
2024/03/15 12:29:36;;;;;;;2.17;1.80;;;27.90;23.30;;;;;;5005512;28;20213;-60
2024/03/15 12:32:03;;;;;;;3.30;1.70;;;28.80;23.10;;;;;;5012364;28;20241;-60
2024/03/15 12:34:30;;;;;;;2.38;1.77;;;27.20;24.10;;;;;;5012532;28;20293;-60
2024/03/15 12:36:56;;;;;;;3.30;1.60;;;26.20;25.90;;;;;;5012518;28;20268;-60
2024/03/15 12:39:23;;;;;;;3.85;1.58;;;28.20;23.20;;;;;;5013945;28;20579;-60
2024/03/15 12:41:54;;;;;;;1.85;1.70;;;26.00;25.10;;;;;;5013678;28;20238;-60
2024/03/15 12:44:21;;;;;;;2.22;2.03;;;25.40;25.70;;;;;;5007968;28;20225;-60
2024/03/15 12:46:48;;;;;;;2.13;1.83;;;22.40;29.20;;;;;;4999550;28;20231;-59